sensor_id;sensor_type;location;lat;lon;timestamp;P1;durP1;ratioP1;P2;durP2;ratioP2
40807;SDS011;26523;52.504;13.498;2023-12-20T00:00:02;7.22;;;3.55;;
40807;SDS011;26523;52.504;13.498;2023-12-20T00:02:28;7.95;;;3.60;;
40807;SDS011;26523;52.504;13.498;2023-12-20T00:04:54;6.72;;;3.03;;
40807;SDS011;26523;52.504;13.498;2023-12-20T00:07:20;7.57;;;3.25;;
40807;SDS011;26523;52.504;13.498;2023-12-20T00:09:45;6.63;;;3.65;;
40807;SDS011;26523;52.504;13.498;2023-12-20T00:12:12;7.95;;;3.28;;
40807;SDS011;26523;52.504;13.498;2023-12-20T00:14:38;7.70;;;3.15;;
40807;SDS011;26523;52.504;13.498;2023-12-20T00:17:03;5.95;;;3.22;;
40807;SDS011;26523;52.504;13.498;2023-12-20T00:19:30;6.93;;;3.00;;
40807;SDS011;26523;52.504;13.498;2023-12-20T00:21:56;7.57;;;3.30;;
40807;SDS011;26523;52.504;13.498;2023-12-20T00:24:21;7.35;;;3.45;;
40807;SDS011;26523;52.504;13.498;2023-12-20T00:26:48;6.40;;;3.22;;
40807;SDS011;26523;52.504;13.498;2023-12-20T00:29:14;7.05;;;3.53;;
40807;SDS011;26523;52.504;13.498;2023-12-20T00:31:39;4.78;;;2.97;;
40807;SDS011;26523;52.504;13.498;2023-12-20T00:34:05;5.95;;;3.00;;
40807;SDS011;26523;52.504;13.498;2023-12-20T00:36:30;6.22;;;3.30;;
40807;SDS011;26523;52.504;13.498;2023-12-20T00:38:57;6.75;;;3.22;;
40807;SDS011;26523;52.504;13.498;2023-12-20T00:41:22;6.40;;;2.97;;
40807;SDS011;26523;52.504;13.498;2023-12-20T00:43:48;5.90;;;2.40;;
40807;SDS011;26523;52.504;13.498;2023-12-20T00:46:15;5.93;;;3.38;;
40807;SDS011;26523;52.504;13.498;2023-12-20T00:48:40;5.32;;;2.88;;
40807;SDS011;26523;52.504;13.498;2023-12-20T00:51:07;7.15;;;3.25;;
40807;SDS011;26523;52.504;13.498;2023-12-20T00:53:35;6.95;;;3.15;;
40807;SDS011;26523;52.504;13.498;2023-12-20T00:56:03;7.22;;;3.33;;
40807;SDS011;26523;52.504;13.498;2023-12-20T00:58:28;5.53;;;2.60;;
40807;SDS011;26523;52.504;13.498;2023-12-20T01:00:54;6.10;;;2.63;;
40807;SDS011;26523;52.504;13.498;2023-12-20T01:03:20;5.63;;;2.75;;
40807;SDS011;26523;52.504;13.498;2023-12-20T01:05:46;6.43;;;3.47;;
40807;SDS011;26523;52.504;13.498;2023-12-20T01:08:12;6.68;;;2.80;;
40807;SDS011;26523;52.504;13.498;2023-12-20T01:10:38;8.10;;;3.20;;
40807;SDS011;26523;52.504;13.498;2023-12-20T01:13:04;5.50;;;2.75;;
40807;SDS011;26523;52.504;13.498;2023-12-20T01:15:29;4.72;;;2.88;;
40807;SDS011;26523;52.504;13.498;2023-12-20T01:17:55;6.65;;;3.28;;
40807;SDS011;26523;52.504;13.498;2023-12-20T01:20:21;5.55;;;2.72;;
40807;SDS011;26523;52.504;13.498;2023-12-20T01:22:48;5.25;;;2.60;;
40807;SDS011;26523;52.504;13.498;2023-12-20T01:25:13;6.25;;;2.65;;
40807;SDS011;26523;52.504;13.498;2023-12-20T01:27:39;6.00;;;3.28;;
40807;SDS011;26523;52.504;13.498;2023-12-20T01:30:04;6.70;;;3.40;;
40807;SDS011;26523;52.504;13.498;2023-12-20T01:32:31;5.28;;;2.78;;
40807;SDS011;26523;52.504;13.498;2023-12-20T01:34:56;5.55;;;2.72;;
40807;SDS011;26523;52.504;13.498;2023-12-20T01:37:22;8.43;;;2.70;;
40807;SDS011;26523;52.504;13.498;2023-12-20T01:39:55;5.82;;;2.70;;
40807;SDS011;26523;52.504;13.498;2023-12-20T01:42:24;6.53;;;2.78;;
40807;SDS011;26523;52.504;13.498;2023-12-20T01:44:51;4.70;;;2.42;;
40807;SDS011;26523;52.504;13.498;2023-12-20T01:47:19;4.75;;;2.45;;
40807;SDS011;26523;52.504;13.498;2023-12-20T01:49:47;5.32;;;2.45;;
40807;SDS011;26523;52.504;13.498;2023-12-20T01:52:14;5.80;;;3.03;;
40807;SDS011;26523;52.504;13.498;2023-12-20T01:54:40;5.28;;;2.65;;
40807;SDS011;26523;52.504;13.498;2023-12-20T01:57:06;5.85;;;2.65;;
40807;SDS011;26523;52.504;13.498;2023-12-20T01:59:33;4.85;;;2.47;;
40807;SDS011;26523;52.504;13.498;2023-12-20T02:01:59;4.70;;;2.30;;
40807;SDS011;26523;52.504;13.498;2023-12-20T02:04:28;4.28;;;2.60;;
40807;SDS011;26523;52.504;13.498;2023-12-20T02:06:54;4.72;;;2.70;;
40807;SDS011;26523;52.504;13.498;2023-12-20T02:09:22;5.10;;;2.75;;
40807;SDS011;26523;52.504;13.498;2023-12-20T02:11:49;5.63;;;2.10;;
40807;SDS011;26523;52.504;13.498;2023-12-20T02:14:15;5.57;;;2.78;;
40807;SDS011;26523;52.504;13.498;2023-12-20T02:16:42;4.63;;;2.47;;
40807;SDS011;26523;52.504;13.498;2023-12-20T02:19:09;3.97;;;1.73;;
40807;SDS011;26523;52.504;13.498;2023-12-20T02:21:40;3.22;;;1.88;;
40807;SDS011;26523;52.504;13.498;2023-12-20T02:24:07;3.72;;;1.67;;
40807;SDS011;26523;52.504;13.498;2023-12-20T02:26:36;3.13;;;1.35;;
40807;SDS011;26523;52.504;13.498;2023-12-20T02:29:03;2.22;;;0.82;;
40807;SDS011;26523;52.504;13.498;2023-12-20T02:31:33;1.67;;;0.90;;
40807;SDS011;26523;52.504;13.498;2023-12-20T02:34:00;1.40;;;0.93;;
40807;SDS011;26523;52.504;13.498;2023-12-20T02:36:26;1.13;;;0.70;;
40807;SDS011;26523;52.504;13.498;2023-12-20T02:38:52;3.03;;;1.20;;
40807;SDS011;26523;52.504;13.498;2023-12-20T02:41:19;4.93;;;1.67;;
40807;SDS011;26523;52.504;13.498;2023-12-20T02:43:45;10.73;;;1.60;;
40807;SDS011;26523;52.504;13.498;2023-12-20T02:46:10;3.13;;;1.40;;
40807;SDS011;26523;52.504;13.498;2023-12-20T02:48:37;4.13;;;1.27;;
40807;SDS011;26523;52.504;13.498;2023-12-20T02:51:05;4.68;;;1.80;;
40807;SDS011;26523;52.504;13.498;2023-12-20T02:53:30;4.60;;;1.90;;
40807;SDS011;26523;52.504;13.498;2023-12-20T02:55:56;4.10;;;1.92;;
40807;SDS011;26523;52.504;13.498;2023-12-20T02:58:23;3.10;;;1.77;;
40807;SDS011;26523;52.504;13.498;2023-12-20T03:00:49;4.25;;;1.88;;
40807;SDS011;26523;52.504;13.498;2023-12-20T03:03:16;5.18;;;2.25;;
40807;SDS011;26523;52.504;13.498;2023-12-20T03:05:43;5.40;;;2.05;;
40807;SDS011;26523;52.504;13.498;2023-12-20T03:08:11;4.57;;;2.40;;
40807;SDS011;26523;52.504;13.498;2023-12-20T03:10:37;5.45;;;2.20;;
40807;SDS011;26523;52.504;13.498;2023-12-20T03:13:08;3.90;;;2.20;;
40807;SDS011;26523;52.504;13.498;2023-12-20T03:15:34;6.43;;;2.45;;
40807;SDS011;26523;52.504;13.498;2023-12-20T03:18:02;6.38;;;2.33;;
40807;SDS011;26523;52.504;13.498;2023-12-20T03:20:28;7.80;;;2.55;;
40807;SDS011;26523;52.504;13.498;2023-12-20T03:22:58;6.50;;;2.10;;
40807;SDS011;26523;52.504;13.498;2023-12-20T03:25:23;3.75;;;1.90;;
40807;SDS011;26523;52.504;13.498;2023-12-20T03:27:49;7.53;;;2.67;;
40807;SDS011;26523;52.504;13.498;2023-12-20T03:30:16;5.93;;;2.00;;
40807;SDS011;26523;52.504;13.498;2023-12-20T03:32:42;6.15;;;2.10;;
40807;SDS011;26523;52.504;13.498;2023-12-20T03:35:08;5.97;;;1.80;;
40807;SDS011;26523;52.504;13.498;2023-12-20T03:37:34;3.55;;;1.80;;
40807;SDS011;26523;52.504;13.498;2023-12-20T03:40:00;7.00;;;2.30;;
40807;SDS011;26523;52.504;13.498;2023-12-20T03:42:27;6.28;;;1.70;;
40807;SDS011;26523;52.504;13.498;2023-12-20T03:44:55;5.22;;;1.95;;
40807;SDS011;26523;52.504;13.498;2023-12-20T03:47:21;2.42;;;1.55;;
40807;SDS011;26523;52.504;13.498;2023-12-20T03:49:47;10.18;;;2.22;;
40807;SDS011;26523;52.504;13.498;2023-12-20T03:52:13;8.43;;;1.52;;
40807;SDS011;26523;52.504;13.498;2023-12-20T03:54:40;3.63;;;1.63;;
40807;SDS011;26523;52.504;13.498;2023-12-20T03:57:08;4.70;;;1.80;;
40807;SDS011;26523;52.504;13.498;2023-12-20T03:59:35;5.07;;;1.55;;
40807;SDS011;26523;52.504;13.498;2023-12-20T04:02:03;3.92;;;1.45;;
40807;SDS011;26523;52.504;13.498;2023-12-20T04:04:29;6.25;;;1.60;;
40807;SDS011;26523;52.504;13.498;2023-12-20T04:06:55;8.60;;;1.33;;
40807;SDS011;26523;52.504;13.498;2023-12-20T04:09:23;7.00;;;1.70;;
40807;SDS011;26523;52.504;13.498;2023-12-20T04:11:49;2.28;;;1.13;;
40807;SDS011;26523;52.504;13.498;2023-12-20T04:14:15;5.50;;;1.15;;
40807;SDS011;26523;52.504;13.498;2023-12-20T04:16:41;6.43;;;2.67;;
40807;SDS011;26523;52.504;13.498;2023-12-20T04:19:07;5.50;;;1.00;;
40807;SDS011;26523;52.504;13.498;2023-12-20T04:21:33;3.05;;;0.82;;
40807;SDS011;26523;52.504;13.498;2023-12-20T04:23:58;2.75;;;1.25;;
40807;SDS011;26523;52.504;13.498;2023-12-20T04:26:24;7.35;;;1.35;;
40807;SDS011;26523;52.504;13.498;2023-12-20T04:28:50;4.68;;;1.10;;
40807;SDS011;26523;52.504;13.498;2023-12-20T04:31:15;12.93;;;1.80;;
40807;SDS011;26523;52.504;13.498;2023-12-20T04:33:42;12.18;;;1.85;;
40807;SDS011;26523;52.504;13.498;2023-12-20T04:36:08;4.35;;;0.80;;
40807;SDS011;26523;52.504;13.498;2023-12-20T04:38:34;4.00;;;1.15;;
40807;SDS011;26523;52.504;13.498;2023-12-20T04:41:00;3.95;;;1.25;;
40807;SDS011;26523;52.504;13.498;2023-12-20T04:43:27;11.40;;;1.27;;
40807;SDS011;26523;52.504;13.498;2023-12-20T04:45:53;1.80;;;0.88;;
40807;SDS011;26523;52.504;13.498;2023-12-20T04:48:19;4.57;;;1.05;;
40807;SDS011;26523;52.504;13.498;2023-12-20T04:50:46;8.80;;;1.60;;
40807;SDS011;26523;52.504;13.498;2023-12-20T04:53:11;3.47;;;1.25;;
40807;SDS011;26523;52.504;13.498;2023-12-20T04:55:37;6.13;;;1.35;;
40807;SDS011;26523;52.504;13.498;2023-12-20T04:58:04;3.90;;;1.17;;
40807;SDS011;26523;52.504;13.498;2023-12-20T05:00:30;5.70;;;1.27;;
40807;SDS011;26523;52.504;13.498;2023-12-20T05:02:57;3.75;;;0.80;;
40807;SDS011;26523;52.504;13.498;2023-12-20T05:05:28;6.93;;;1.02;;
40807;SDS011;26523;52.504;13.498;2023-12-20T05:07:54;5.65;;;1.33;;
40807;SDS011;26523;52.504;13.498;2023-12-20T05:10:23;7.60;;;1.23;;
40807;SDS011;26523;52.504;13.498;2023-12-20T05:12:48;10.30;;;1.25;;
40807;SDS011;26523;52.504;13.498;2023-12-20T05:15:15;9.13;;;1.20;;
40807;SDS011;26523;52.504;13.498;2023-12-20T05:17:41;5.47;;;1.33;;
40807;SDS011;26523;52.504;13.498;2023-12-20T05:20:08;4.63;;;1.20;;
40807;SDS011;26523;52.504;13.498;2023-12-20T05:22:34;6.97;;;1.23;;
40807;SDS011;26523;52.504;13.498;2023-12-20T05:25:01;7.13;;;1.00;;
40807;SDS011;26523;52.504;13.498;2023-12-20T05:27:27;8.48;;;1.50;;
40807;SDS011;26523;52.504;13.498;2023-12-20T05:29:52;9.05;;;2.40;;
40807;SDS011;26523;52.504;13.498;2023-12-20T05:32:23;3.83;;;1.20;;
40807;SDS011;26523;52.504;13.498;2023-12-20T05:34:50;3.10;;;1.60;;
40807;SDS011;26523;52.504;13.498;2023-12-20T05:37:16;8.55;;;1.55;;
40807;SDS011;26523;52.504;13.498;2023-12-20T05:39:41;3.85;;;0.95;;
40807;SDS011;26523;52.504;13.498;2023-12-20T05:42:07;8.43;;;1.17;;
40807;SDS011;26523;52.504;13.498;2023-12-20T05:44:33;2.00;;;0.95;;
40807;SDS011;26523;52.504;13.498;2023-12-20T05:47:00;4.47;;;1.58;;
40807;SDS011;26523;52.504;13.498;2023-12-20T05:49:26;7.55;;;1.70;;
40807;SDS011;26523;52.504;13.498;2023-12-20T05:51:52;5.28;;;1.40;;
40807;SDS011;26523;52.504;13.498;2023-12-20T05:54:19;6.75;;;0.93;;
40807;SDS011;26523;52.504;13.498;2023-12-20T05:56:45;1.67;;;0.80;;
40807;SDS011;26523;52.504;13.498;2023-12-20T05:59:11;4.22;;;1.75;;
40807;SDS011;26523;52.504;13.498;2023-12-20T06:01:37;5.60;;;1.00;;
40807;SDS011;26523;52.504;13.498;2023-12-20T06:04:03;5.78;;;1.98;;
40807;SDS011;26523;52.504;13.498;2023-12-20T06:06:29;4.55;;;1.42;;
40807;SDS011;26523;52.504;13.498;2023-12-20T06:08:55;6.50;;;1.20;;
40807;SDS011;26523;52.504;13.498;2023-12-20T06:11:23;7.25;;;1.30;;
40807;SDS011;26523;52.504;13.498;2023-12-20T06:13:51;11.98;;;1.48;;
40807;SDS011;26523;52.504;13.498;2023-12-20T06:16:21;12.75;;;1.38;;
40807;SDS011;26523;52.504;13.498;2023-12-20T06:18:48;8.77;;;1.83;;
40807;SDS011;26523;52.504;13.498;2023-12-20T06:21:15;9.70;;;2.05;;
40807;SDS011;26523;52.504;13.498;2023-12-20T06:23:44;8.18;;;1.50;;
40807;SDS011;26523;52.504;13.498;2023-12-20T06:26:10;7.05;;;1.67;;
40807;SDS011;26523;52.504;13.498;2023-12-20T06:28:36;4.50;;;1.30;;
40807;SDS011;26523;52.504;13.498;2023-12-20T06:31:02;5.35;;;1.65;;
40807;SDS011;26523;52.504;13.498;2023-12-20T06:33:28;7.50;;;1.40;;
40807;SDS011;26523;52.504;13.498;2023-12-20T06:35:56;3.20;;;1.20;;
40807;SDS011;26523;52.504;13.498;2023-12-20T06:38:21;13.50;;;1.40;;
40807;SDS011;26523;52.504;13.498;2023-12-20T06:40:47;7.05;;;1.75;;
40807;SDS011;26523;52.504;13.498;2023-12-20T06:43:13;7.05;;;1.15;;
40807;SDS011;26523;52.504;13.498;2023-12-20T06:45:44;3.78;;;0.93;;
40807;SDS011;26523;52.504;13.498;2023-12-20T06:48:09;7.63;;;1.35;;
40807;SDS011;26523;52.504;13.498;2023-12-20T06:50:44;9.52;;;1.33;;
40807;SDS011;26523;52.504;13.498;2023-12-20T06:53:18;8.45;;;1.27;;
40807;SDS011;26523;52.504;13.498;2023-12-20T06:55:46;5.50;;;1.52;;
40807;SDS011;26523;52.504;13.498;2023-12-20T06:58:13;6.78;;;1.42;;
40807;SDS011;26523;52.504;13.498;2023-12-20T07:00:40;5.93;;;1.67;;
40807;SDS011;26523;52.504;13.498;2023-12-20T07:03:08;3.33;;;1.15;;
40807;SDS011;26523;52.504;13.498;2023-12-20T07:05:34;7.57;;;1.45;;
40807;SDS011;26523;52.504;13.498;2023-12-20T07:08:01;6.88;;;1.33;;
40807;SDS011;26523;52.504;13.498;2023-12-20T07:10:30;8.45;;;1.30;;
40807;SDS011;26523;52.504;13.498;2023-12-20T07:13:00;8.45;;;1.48;;
40807;SDS011;26523;52.504;13.498;2023-12-20T07:15:26;23.08;;;2.58;;
40807;SDS011;26523;52.504;13.498;2023-12-20T07:17:56;8.80;;;1.35;;
40807;SDS011;26523;52.504;13.498;2023-12-20T07:20:26;10.43;;;1.35;;
40807;SDS011;26523;52.504;13.498;2023-12-20T07:23:22;3.00;;;1.13;;
40807;SDS011;26523;52.504;13.498;2023-12-20T07:25:48;9.80;;;1.95;;
40807;SDS011;26523;52.504;13.498;2023-12-20T07:28:15;9.98;;;1.70;;
40807;SDS011;26523;52.504;13.498;2023-12-20T07:30:42;9.48;;;2.13;;
40807;SDS011;26523;52.504;13.498;2023-12-20T07:33:08;3.85;;;1.60;;
40807;SDS011;26523;52.504;13.498;2023-12-20T07:35:34;8.38;;;1.27;;
40807;SDS011;26523;52.504;13.498;2023-12-20T07:38:01;3.03;;;1.23;;
40807;SDS011;26523;52.504;13.498;2023-12-20T07:40:28;11.27;;;1.45;;
40807;SDS011;26523;52.504;13.498;2023-12-20T07:42:54;3.50;;;1.50;;
40807;SDS011;26523;52.504;13.498;2023-12-20T07:45:20;12.30;;;1.88;;
40807;SDS011;26523;52.504;13.498;2023-12-20T07:47:45;11.18;;;2.60;;
40807;SDS011;26523;52.504;13.498;2023-12-20T07:50:15;5.13;;;1.30;;
40807;SDS011;26523;52.504;13.498;2023-12-20T07:52:40;9.25;;;1.33;;
40807;SDS011;26523;52.504;13.498;2023-12-20T07:55:06;19.48;;;4.68;;
40807;SDS011;26523;52.504;13.498;2023-12-20T07:57:33;22.20;;;4.05;;
40807;SDS011;26523;52.504;13.498;2023-12-20T07:59:59;16.08;;;1.95;;
40807;SDS011;26523;52.504;13.498;2023-12-20T08:02:30;16.17;;;2.17;;
40807;SDS011;26523;52.504;13.498;2023-12-20T08:04:56;15.30;;;1.60;;
40807;SDS011;26523;52.504;13.498;2023-12-20T08:07:23;6.80;;;2.20;;
40807;SDS011;26523;52.504;13.498;2023-12-20T08:09:49;10.85;;;2.08;;
40807;SDS011;26523;52.504;13.498;2023-12-20T08:12:16;11.38;;;2.22;;
40807;SDS011;26523;52.504;13.498;2023-12-20T08:14:44;13.18;;;1.77;;
40807;SDS011;26523;52.504;13.498;2023-12-20T08:17:11;7.85;;;1.10;;
40807;SDS011;26523;52.504;13.498;2023-12-20T08:19:44;12.50;;;1.80;;
40807;SDS011;26523;52.504;13.498;2023-12-20T08:22:11;8.48;;;1.60;;
40807;SDS011;26523;52.504;13.498;2023-12-20T08:24:36;9.55;;;1.00;;
40807;SDS011;26523;52.504;13.498;2023-12-20T08:27:03;8.27;;;1.48;;
40807;SDS011;26523;52.504;13.498;2023-12-20T08:29:29;7.18;;;1.38;;
40807;SDS011;26523;52.504;13.498;2023-12-20T08:31:56;2.63;;;0.80;;
40807;SDS011;26523;52.504;13.498;2023-12-20T08:34:37;5.25;;;1.35;;
40807;SDS011;26523;52.504;13.498;2023-12-20T08:37:03;3.70;;;1.30;;
40807;SDS011;26523;52.504;13.498;2023-12-20T08:39:29;3.63;;;1.15;;
40807;SDS011;26523;52.504;13.498;2023-12-20T08:41:55;3.53;;;1.98;;
40807;SDS011;26523;52.504;13.498;2023-12-20T08:44:20;4.68;;;1.33;;
40807;SDS011;26523;52.504;13.498;2023-12-20T08:46:47;7.97;;;0.88;;
40807;SDS011;26523;52.504;13.498;2023-12-20T08:49:13;10.15;;;1.55;;
40807;SDS011;26523;52.504;13.498;2023-12-20T08:51:39;15.55;;;1.33;;
40807;SDS011;26523;52.504;13.498;2023-12-20T08:54:06;4.35;;;1.42;;
40807;SDS011;26523;52.504;13.498;2023-12-20T08:56:33;4.30;;;1.10;;
40807;SDS011;26523;52.504;13.498;2023-12-20T08:58:59;13.77;;;1.35;;
40807;SDS011;26523;52.504;13.498;2023-12-20T09:01:24;7.47;;;1.35;;
40807;SDS011;26523;52.504;13.498;2023-12-20T09:03:50;12.02;;;2.00;;
40807;SDS011;26523;52.504;13.498;2023-12-20T09:06:15;11.20;;;1.83;;
40807;SDS011;26523;52.504;13.498;2023-12-20T09:08:41;9.65;;;1.58;;
40807;SDS011;26523;52.504;13.498;2023-12-20T09:11:07;6.10;;;2.10;;
40807;SDS011;26523;52.504;13.498;2023-12-20T09:13:32;6.53;;;1.35;;
40807;SDS011;26523;52.504;13.498;2023-12-20T09:15:58;3.70;;;1.30;;
40807;SDS011;26523;52.504;13.498;2023-12-20T09:18:24;7.72;;;1.58;;
40807;SDS011;26523;52.504;13.498;2023-12-20T09:20:50;3.22;;;1.02;;
40807;SDS011;26523;52.504;13.498;2023-12-20T09:23:15;5.13;;;1.08;;
40807;SDS011;26523;52.504;13.498;2023-12-20T09:25:42;3.03;;;1.50;;
40807;SDS011;26523;52.504;13.498;2023-12-20T09:28:08;11.43;;;2.55;;
40807;SDS011;26523;52.504;13.498;2023-12-20T09:30:34;3.90;;;1.30;;
40807;SDS011;26523;52.504;13.498;2023-12-20T09:33:02;7.40;;;1.50;;
40807;SDS011;26523;52.504;13.498;2023-12-20T09:35:28;7.90;;;1.40;;
40807;SDS011;26523;52.504;13.498;2023-12-20T09:37:54;4.30;;;1.90;;
40807;SDS011;26523;52.504;13.498;2023-12-20T09:40:20;4.00;;;1.15;;
40807;SDS011;26523;52.504;13.498;2023-12-20T09:42:58;10.38;;;1.20;;
40807;SDS011;26523;52.504;13.498;2023-12-20T09:45:33;5.07;;;1.42;;
40807;SDS011;26523;52.504;13.498;2023-12-20T09:47:59;5.40;;;1.33;;
40807;SDS011;26523;52.504;13.498;2023-12-20T09:50:25;8.68;;;1.08;;
40807;SDS011;26523;52.504;13.498;2023-12-20T09:52:52;5.35;;;1.00;;
40807;SDS011;26523;52.504;13.498;2023-12-20T09:55:18;13.25;;;1.23;;
40807;SDS011;26523;52.504;13.498;2023-12-20T09:57:45;5.22;;;1.08;;
40807;SDS011;26523;52.504;13.498;2023-12-20T10:00:12;12.55;;;1.38;;
40807;SDS011;26523;52.504;13.498;2023-12-20T10:02:38;10.27;;;1.20;;
40807;SDS011;26523;52.504;13.498;2023-12-20T10:05:11;6.07;;;1.27;;
40807;SDS011;26523;52.504;13.498;2023-12-20T10:07:46;5.03;;;1.33;;
40807;SDS011;26523;52.504;13.498;2023-12-20T10:10:13;2.63;;;1.33;;
40807;SDS011;26523;52.504;13.498;2023-12-20T10:12:39;10.32;;;2.40;;
40807;SDS011;26523;52.504;13.498;2023-12-20T10:15:05;5.18;;;1.58;;
40807;SDS011;26523;52.504;13.498;2023-12-20T10:17:31;7.03;;;1.20;;
40807;SDS011;26523;52.504;13.498;2023-12-20T10:19:57;4.05;;;1.45;;
40807;SDS011;26523;52.504;13.498;2023-12-20T10:22:23;15.48;;;2.35;;
40807;SDS011;26523;52.504;13.498;2023-12-20T10:24:49;9.90;;;1.65;;
40807;SDS011;26523;52.504;13.498;2023-12-20T10:27:15;7.78;;;1.58;;
40807;SDS011;26523;52.504;13.498;2023-12-20T10:29:44;5.47;;;1.17;;
40807;SDS011;26523;52.504;13.498;2023-12-20T10:32:43;9.88;;;2.05;;
40807;SDS011;26523;52.504;13.498;2023-12-20T10:35:02;10.85;;;1.55;;
40807;SDS011;26523;52.504;13.498;2023-12-20T10:37:28;10.77;;;2.05;;
40807;SDS011;26523;52.504;13.498;2023-12-20T10:39:54;7.10;;;1.52;;
40807;SDS011;26523;52.504;13.498;2023-12-20T10:42:24;8.13;;;1.83;;
40807;SDS011;26523;52.504;13.498;2023-12-20T10:44:51;10.93;;;1.77;;
40807;SDS011;26523;52.504;13.498;2023-12-20T10:47:18;13.05;;;2.25;;
40807;SDS011;26523;52.504;13.498;2023-12-20T10:49:45;8.77;;;1.52;;
40807;SDS011;26523;52.504;13.498;2023-12-20T10:52:11;7.55;;;1.00;;
40807;SDS011;26523;52.504;13.498;2023-12-20T10:54:38;10.82;;;2.42;;
40807;SDS011;26523;52.504;13.498;2023-12-20T10:57:05;8.90;;;1.80;;
40807;SDS011;26523;52.504;13.498;2023-12-20T10:59:32;6.43;;;1.35;;
40807;SDS011;26523;52.504;13.498;2023-12-20T11:02:00;14.90;;;3.65;;
40807;SDS011;26523;52.504;13.498;2023-12-20T11:04:44;8.73;;;1.30;;
40807;SDS011;26523;52.504;13.498;2023-12-20T11:07:37;9.18;;;1.20;;
40807;SDS011;26523;52.504;13.498;2023-12-20T11:10:19;8.20;;;2.28;;
40807;SDS011;26523;52.504;13.498;2023-12-20T11:13:08;4.85;;;1.45;;
40807;SDS011;26523;52.504;13.498;2023-12-20T11:15:40;11.50;;;1.70;;
40807;SDS011;26523;52.504;13.498;2023-12-20T11:18:06;10.77;;;1.50;;
40807;SDS011;26523;52.504;13.498;2023-12-20T11:20:35;3.78;;;1.42;;
40807;SDS011;26523;52.504;13.498;2023-12-20T11:23:05;7.65;;;1.70;;
40807;SDS011;26523;52.504;13.498;2023-12-20T11:25:46;10.20;;;1.77;;
40807;SDS011;26523;52.504;13.498;2023-12-20T11:30:55;6.40;;;1.25;;
40807;SDS011;26523;52.504;13.498;2023-12-20T11:33:45;7.13;;;1.20;;
40807;SDS011;26523;52.504;13.498;2023-12-20T11:36:18;6.60;;;2.13;;
40807;SDS011;26523;52.504;13.498;2023-12-20T11:38:57;6.88;;;1.60;;
40807;SDS011;26523;52.504;13.498;2023-12-20T11:41:25;10.05;;;1.83;;
40807;SDS011;26523;52.504;13.498;2023-12-20T11:43:54;8.57;;;1.83;;
40807;SDS011;26523;52.504;13.498;2023-12-20T11:46:21;9.25;;;1.45;;
40807;SDS011;26523;52.504;13.498;2023-12-20T11:48:47;11.82;;;2.15;;
40807;SDS011;26523;52.504;13.498;2023-12-20T11:51:13;10.18;;;1.90;;
40807;SDS011;26523;52.504;13.498;2023-12-20T11:53:42;10.18;;;1.70;;
40807;SDS011;26523;52.504;13.498;2023-12-20T11:56:08;13.95;;;1.58;;
40807;SDS011;26523;52.504;13.498;2023-12-20T11:58:34;4.00;;;1.25;;
40807;SDS011;26523;52.504;13.498;2023-12-20T12:01:01;8.88;;;1.15;;
40807;SDS011;26523;52.504;13.498;2023-12-20T12:03:27;9.27;;;1.42;;
40807;SDS011;26523;52.504;13.498;2023-12-20T12:05:53;11.77;;;2.17;;
40807;SDS011;26523;52.504;13.498;2023-12-20T12:08:19;6.07;;;1.25;;
40807;SDS011;26523;52.504;13.498;2023-12-20T12:10:44;10.63;;;1.33;;
40807;SDS011;26523;52.504;13.498;2023-12-20T12:13:10;5.88;;;1.38;;
40807;SDS011;26523;52.504;13.498;2023-12-20T12:15:36;10.95;;;1.58;;
40807;SDS011;26523;52.504;13.498;2023-12-20T12:18:02;9.70;;;1.55;;
40807;SDS011;26523;52.504;13.498;2023-12-20T12:20:29;4.80;;;1.30;;
40807;SDS011;26523;52.504;13.498;2023-12-20T12:22:58;8.05;;;1.58;;
40807;SDS011;26523;52.504;13.498;2023-12-20T12:25:28;7.78;;;1.30;;
40807;SDS011;26523;52.504;13.498;2023-12-20T12:27:56;7.32;;;1.38;;
40807;SDS011;26523;52.504;13.498;2023-12-20T12:30:22;15.68;;;1.60;;
40807;SDS011;26523;52.504;13.498;2023-12-20T12:32:48;10.05;;;1.92;;
40807;SDS011;26523;52.504;13.498;2023-12-20T12:35:14;11.52;;;1.75;;
40807;SDS011;26523;52.504;13.498;2023-12-20T12:37:40;7.50;;;1.23;;
40807;SDS011;26523;52.504;13.498;2023-12-20T12:40:09;5.88;;;1.90;;
40807;SDS011;26523;52.504;13.498;2023-12-20T12:42:40;6.32;;;1.38;;
40807;SDS011;26523;52.504;13.498;2023-12-20T12:45:07;5.55;;;1.13;;
40807;SDS011;26523;52.504;13.498;2023-12-20T12:47:35;4.90;;;1.48;;
40807;SDS011;26523;52.504;13.498;2023-12-20T12:50:01;3.70;;;1.33;;
40807;SDS011;26523;52.504;13.498;2023-12-20T12:52:27;5.70;;;1.20;;
40807;SDS011;26523;52.504;13.498;2023-12-20T12:54:53;3.08;;;1.13;;
40807;SDS011;26523;52.504;13.498;2023-12-20T12:57:19;4.65;;;1.30;;
40807;SDS011;26523;52.504;13.498;2023-12-20T12:59:45;4.13;;;1.13;;
40807;SDS011;26523;52.504;13.498;2023-12-20T13:02:12;12.10;;;2.53;;
40807;SDS011;26523;52.504;13.498;2023-12-20T13:04:38;13.63;;;1.75;;
40807;SDS011;26523;52.504;13.498;2023-12-20T13:07:04;8.75;;;1.83;;
40807;SDS011;26523;52.504;13.498;2023-12-20T13:09:30;5.35;;;2.65;;
40807;SDS011;26523;52.504;13.498;2023-12-20T13:11:56;7.07;;;1.30;;
40807;SDS011;26523;52.504;13.498;2023-12-20T13:14:22;9.77;;;1.42;;
40807;SDS011;26523;52.504;13.498;2023-12-20T13:16:48;6.47;;;1.75;;
40807;SDS011;26523;52.504;13.498;2023-12-20T13:19:13;11.45;;;2.50;;
40807;SDS011;26523;52.504;13.498;2023-12-20T13:21:39;6.13;;;1.70;;
40807;SDS011;26523;52.504;13.498;2023-12-20T13:24:05;8.70;;;2.10;;
40807;SDS011;26523;52.504;13.498;2023-12-20T13:26:31;6.22;;;1.67;;
40807;SDS011;26523;52.504;13.498;2023-12-20T13:28:57;2.45;;;1.45;;
40807;SDS011;26523;52.504;13.498;2023-12-20T13:31:23;9.13;;;1.67;;
40807;SDS011;26523;52.504;13.498;2023-12-20T13:33:49;1.98;;;1.10;;
40807;SDS011;26523;52.504;13.498;2023-12-20T13:36:15;1.73;;;0.88;;
40807;SDS011;26523;52.504;13.498;2023-12-20T13:38:40;3.47;;;0.88;;
40807;SDS011;26523;52.504;13.498;2023-12-20T13:41:06;5.43;;;0.88;;
40807;SDS011;26523;52.504;13.498;2023-12-20T13:43:32;2.28;;;1.13;;
40807;SDS011;26523;52.504;13.498;2023-12-20T13:45:59;3.92;;;1.10;;
40807;SDS011;26523;52.504;13.498;2023-12-20T13:48:25;2.78;;;1.00;;
40807;SDS011;26523;52.504;13.498;2023-12-20T13:50:50;4.57;;;0.60;;
40807;SDS011;26523;52.504;13.498;2023-12-20T13:53:16;5.07;;;0.75;;
40807;SDS011;26523;52.504;13.498;2023-12-20T13:55:42;4.70;;;1.45;;
40807;SDS011;26523;52.504;13.498;2023-12-20T13:58:08;1.20;;;0.90;;
40807;SDS011;26523;52.504;13.498;2023-12-20T14:00:35;2.03;;;1.02;;
40807;SDS011;26523;52.504;13.498;2023-12-20T14:03:01;2.95;;;0.40;;
40807;SDS011;26523;52.504;13.498;2023-12-20T14:05:28;1.83;;;0.50;;
40807;SDS011;26523;52.504;13.498;2023-12-20T14:07:54;2.35;;;0.75;;
40807;SDS011;26523;52.504;13.498;2023-12-20T14:10:22;2.67;;;0.65;;
40807;SDS011;26523;52.504;13.498;2023-12-20T14:12:51;2.13;;;0.90;;
40807;SDS011;26523;52.504;13.498;2023-12-20T14:15:17;1.02;;;0.65;;
40807;SDS011;26523;52.504;13.498;2023-12-20T14:17:43;4.78;;;0.80;;
40807;SDS011;26523;52.504;13.498;2023-12-20T14:20:09;3.38;;;1.17;;
40807;SDS011;26523;52.504;13.498;2023-12-20T14:22:37;12.25;;;2.03;;
40807;SDS011;26523;52.504;13.498;2023-12-20T14:25:03;5.30;;;1.10;;
40807;SDS011;26523;52.504;13.498;2023-12-20T14:27:31;4.93;;;0.77;;
40807;SDS011;26523;52.504;13.498;2023-12-20T14:29:57;1.42;;;0.77;;
40807;SDS011;26523;52.504;13.498;2023-12-20T14:32:23;2.67;;;0.60;;
40807;SDS011;26523;52.504;13.498;2023-12-20T14:34:49;2.50;;;1.17;;